createdAt,value
2022-10-05T00:00:02.354Z,80.5
2022-10-05T00:01:05.775Z,80.5
2022-10-05T00:02:08.550Z,80.3
2022-10-05T00:03:10.924Z,80.7
2022-10-05T00:04:14.021Z,80.8
2022-10-05T00:05:17.542Z,80.7
2022-10-05T00:06:20.471Z,80.9
2022-10-05T00:07:22.923Z,81
2022-10-05T00:08:25.448Z,80.8
2022-10-05T00:09:28.146Z,81
2022-10-05T00:10:31.679Z,81.1
2022-10-05T00:11:35.109Z,81.2
2022-10-05T00:12:38.197Z,81
2022-10-05T00:13:40.726Z,80.9
2022-10-05T00:14:44.543Z,81.1
2022-10-05T00:15:48.349Z,81.2
2022-10-05T00:16:53.002Z,81.2
2022-10-05T00:17:56.142Z,81.2
2022-10-05T00:18:59.241Z,81.2
2022-10-05T00:20:02.080Z,81.2
2022-10-05T00:21:04.946Z,81.4
2022-10-05T00:22:08.007Z,81.3
2022-10-05T00:23:10.443Z,81.2
2022-10-05T00:24:13.741Z,81.5
2022-10-05T00:25:17.075Z,81.7
2022-10-05T00:26:20.512Z,81.3
2022-10-05T00:27:23.211Z,81.6
2022-10-05T00:28:26.952Z,81.4
2022-10-05T00:29:29.973Z,81.5
2022-10-05T00:30:33.715Z,81.3
2022-10-05T00:31:37.228Z,81.3
2022-10-05T00:32:41.076Z,81.7
2022-10-05T00:33:44.260Z,81.6
2022-10-05T00:34:46.964Z,81.4
2022-10-05T00:35:49.975Z,81.3
2022-10-05T00:36:53.738Z,81.2
2022-10-05T00:37:56.623Z,81.2
2022-10-05T00:38:59.729Z,81.4
2022-10-05T00:40:02.853Z,81.4
2022-10-05T00:41:06.519Z,81.4
2022-10-05T00:42:10.296Z,81.4
2022-10-05T00:43:13.445Z,81.3
2022-10-05T00:44:16.163Z,81.2
2022-10-05T00:45:19.386Z,80.9
2022-10-05T00:46:23.243Z,81.6
2022-10-05T00:47:27.284Z,81.6
2022-10-05T00:48:30.698Z,81.5
2022-10-05T00:49:34.071Z,81.6
2022-10-05T00:50:36.854Z,81.2
2022-10-05T00:51:39.369Z,81.2
2022-10-05T00:52:41.880Z,81.2
2022-10-05T00:53:45.393Z,81.5
2022-10-05T00:54:48.106Z,81.3
2022-10-05T00:55:51.117Z,81.5
2022-10-05T00:56:53.644Z,81.4
2022-10-05T00:57:56.555Z,81.3
2022-10-05T00:58:58.993Z,81
2022-10-05T01:00:02.271Z,80.7
2022-10-05T01:01:05.830Z,81
2022-10-05T01:02:09.546Z,80.8
2022-10-05T01:03:13.308Z,80.7
2022-10-05T01:04:15.819Z,80.6
2022-10-05T01:05:18.816Z,80.5
2022-10-05T01:06:21.702Z,80.5
2022-10-05T01:07:24.027Z,80.6
2022-10-05T01:08:27.082Z,80.6
2022-10-05T01:09:30.273Z,80.7
2022-10-05T01:10:32.852Z,80.7
2022-10-05T01:11:35.754Z,80.6
2022-10-05T01:12:38.548Z,80.4
2022-10-05T01:13:41.676Z,80.9
2022-10-05T01:14:44.674Z,80.7
2022-10-05T01:15:47.348Z,80.8
2022-10-05T01:16:52.399Z,81
2022-10-05T01:17:56.348Z,80.8
2022-10-05T01:19:00.003Z,80.4
2022-10-05T01:20:03.176Z,80.3
2022-10-05T01:21:06.912Z,80.6
2022-10-05T01:22:10.032Z,80.8
2022-10-05T01:23:12.832Z,80.6
2022-10-05T01:24:15.905Z,80.4
2022-10-05T01:25:18.975Z,80.4
2022-10-05T01:26:21.755Z,80.2
2022-10-05T01:27:24.290Z,80.4
2022-10-05T01:28:27.335Z,80.2
2022-10-05T01:29:30.522Z,80.6
2022-10-05T01:30:34.240Z,80.4
2022-10-05T01:31:37.631Z,80
2022-10-05T01:32:41.243Z,80
2022-10-05T01:33:44.792Z,80.1
2022-10-05T01:34:48.239Z,80.5
2022-10-05T01:35:51.330Z,80.3
2022-10-05T01:36:54.486Z,80
2022-10-05T01:37:57.905Z,80.2
2022-10-05T01:39:00.794Z,79.9
2022-10-05T01:40:03.944Z,80
2022-10-05T01:41:07.682Z,79.7
2022-10-05T01:42:10.774Z,79.7
2022-10-05T01:43:13.610Z,79.6
2022-10-05T01:44:16.753Z,79.7
2022-10-05T01:45:19.364Z,79.6
2022-10-05T01:46:22.887Z,79.6
2022-10-05T01:47:25.976Z,79.4
2022-10-05T01:48:28.778Z,79.4
2022-10-05T01:49:31.995Z,79.5
2022-10-05T01:50:35.470Z,79.6
2022-10-05T01:51:38.721Z,79.7
2022-10-05T01:52:41.856Z,79.5
2022-10-05T01:53:44.729Z,79.7
2022-10-05T01:54:48.075Z,79.4
2022-10-05T01:55:51.240Z,79.6
2022-10-05T01:56:53.923Z,79.3
2022-10-05T01:57:57.188Z,79.3
2022-10-05T01:59:00.469Z,79.2
2022-10-05T02:00:03.182Z,79.1
2022-10-05T02:01:06.698Z,79.2
2022-10-05T02:02:10.387Z,79
2022-10-05T02:03:13.553Z,78.8
2022-10-05T02:05:06.728Z,78.9
2022-10-05T02:06:10.402Z,78.7
2022-10-05T02:07:13.117Z,78.5
2022-10-05T02:08:16.491Z,78.1
2022-10-05T02:09:18.656Z,78
2022-10-05T02:10:22.010Z,78
2022-10-05T02:11:24.903Z,78.1
2022-10-05T02:12:28.094Z,77.9
2022-10-05T02:13:31.504Z,77.8
2022-10-05T02:14:35.279Z,77.7
2022-10-05T02:15:39.188Z,77.8
2022-10-05T02:16:42.183Z,77.9
2022-10-05T02:17:45.034Z,78.1
2022-10-05T02:18:47.742Z,78
2022-10-05T02:19:51.431Z,77.9
2022-10-05T02:20:55.468Z,77.8
2022-10-05T02:21:59.259Z,77.8
2022-10-05T02:23:02.320Z,77.8
2022-10-05T02:24:05.757Z,77.6
2022-10-05T02:25:08.110Z,77.6
2022-10-05T02:26:11.559Z,77.5
2022-10-05T02:27:14.117Z,77.5
2022-10-05T02:28:18.097Z,77.2
2022-10-05T02:29:21.381Z,77.4
2022-10-05T02:30:24.603Z,77.2
2022-10-05T02:31:28.818Z,77.1
2022-10-05T02:32:32.132Z,77.2
2022-10-05T02:33:35.917Z,77.1
2022-10-05T02:34:38.741Z,77.2
2022-10-05T02:35:41.865Z,77.2
2022-10-05T02:36:46.180Z,77.4
2022-10-05T02:37:51.443Z,77.5
2022-10-05T02:38:54.114Z,77.5
2022-10-05T02:39:57.553Z,76.9
2022-10-05T02:41:00.629Z,77.2
2022-10-05T02:42:03.214Z,77.4
2022-10-05T02:43:06.293Z,77.3
2022-10-05T02:44:08.884Z,77
2022-10-05T02:45:11.488Z,77
2022-10-05T02:46:14.959Z,76.8
2022-10-05T02:47:17.646Z,76.9
2022-10-05T02:48:21.125Z,76.8
2022-10-05T02:49:23.715Z,76.7
2022-10-05T02:50:26.795Z,76.7
2022-10-05T02:51:29.942Z,76.6
2022-10-05T02:52:32.962Z,76.5
2022-10-05T02:53:36.472Z,76.4
2022-10-05T02:54:39.342Z,76.7
2022-10-05T02:55:41.864Z,76.9
2022-10-05T02:56:46.284Z,77.2
2022-10-05T02:57:50.432Z,76.9
2022-10-05T02:58:53.219Z,76.9
2022-10-05T02:59:56.558Z,77
2022-10-05T03:00:59.882Z,77.3
2022-10-05T03:02:03.661Z,77.2
2022-10-05T03:03:06.805Z,77.2
2022-10-05T03:04:10.196Z,76.7
2022-10-05T03:05:13.259Z,77.1
2022-10-05T03:06:16.347Z,77.6
2022-10-05T03:07:19.687Z,77.3
2022-10-05T03:08:22.610Z,77.1
2022-10-05T03:09:26.376Z,77.9
2022-10-05T03:10:29.905Z,77.3
2022-10-05T03:11:32.436Z,77.3
2022-10-05T03:12:35.323Z,77.4
2022-10-05T03:13:37.866Z,77.3
2022-10-05T03:14:40.119Z,77.3
2022-10-05T03:15:43.206Z,77.3
2022-10-05T03:16:47.626Z,77.7
2022-10-05T03:17:51.876Z,77.4
2022-10-05T03:18:55.132Z,77.2
2022-10-05T03:19:58.417Z,77.3
2022-10-05T03:21:00.937Z,77.3
2022-10-05T03:22:04.095Z,77.4
2022-10-05T03:23:07.431Z,77.7
2022-10-05T03:24:10.627Z,77.4
2022-10-05T03:25:14.494Z,77.6
2022-10-05T03:26:17.499Z,77.8
2022-10-05T03:27:20.165Z,77.4
2022-10-05T03:28:23.697Z,77.7
2022-10-05T03:29:26.361Z,77.5
2022-10-05T03:30:29.426Z,77.6
2022-10-05T03:31:32.484Z,77.8
2022-10-05T03:32:35.418Z,77.6
2022-10-05T03:33:38.880Z,78.1
2022-10-05T03:34:41.120Z,77.9
2022-10-05T03:35:44.470Z,77.9
2022-10-05T03:36:49.329Z,77.9
2022-10-05T03:37:52.368Z,78
2022-10-05T03:38:55.805Z,77.9
2022-10-05T03:39:58.486Z,77.9
2022-10-05T03:41:02.155Z,78.1
2022-10-05T03:42:05.500Z,77.8
2022-10-05T03:43:08.380Z,77.8
2022-10-05T03:44:11.160Z,78.1
2022-10-05T03:45:14.067Z,78
2022-10-05T03:46:17.578Z,77.9
2022-10-05T03:47:21.525Z,78.1
2022-10-05T03:48:24.600Z,78.3
2022-10-05T03:49:27.419Z,78.4
2022-10-05T03:50:30.594Z,78.5
2022-10-05T03:51:33.678Z,78.4
2022-10-05T03:52:37.100Z,78.2
2022-10-05T03:53:40.172Z,78.1
2022-10-05T03:54:43.375Z,78.3
2022-10-05T03:55:46.585Z,78.7
2022-10-05T03:56:51.146Z,78.6
2022-10-05T03:57:53.841Z,78.5
2022-10-05T03:58:57.103Z,78.3
2022-10-05T03:59:59.335Z,78.3
2022-10-05T04:01:02.213Z,78.5
2022-10-05T04:02:05.549Z,78.7
2022-10-05T04:03:09.065Z,78.5
2022-10-05T04:04:11.843Z,78.6
2022-10-05T04:05:14.563Z,78.7
2022-10-05T04:06:17.739Z,78.3
2022-10-05T04:07:20.736Z,78.6
2022-10-05T04:08:23.615Z,78.5
2022-10-05T04:09:27.035Z,78.4
2022-10-05T04:10:30.210Z,78.4
2022-10-05T04:11:33.400Z,78.3
2022-10-05T04:12:37.221Z,78.3
2022-10-05T04:13:39.934Z,78.4
2022-10-05T04:14:42.438Z,78.6
2022-10-05T04:15:46.064Z,78.6
2022-10-05T04:16:50.390Z,78.4
2022-10-05T04:17:53.478Z,78.5
2022-10-05T04:18:56.744Z,78.6
2022-10-05T04:20:00.444Z,78.6
2022-10-05T04:21:03.932Z,78.6
2022-10-05T04:22:07.018Z,78.6
2022-10-05T04:23:10.028Z,78.8
2022-10-05T04:24:13.717Z,78.9
2022-10-05T04:25:16.888Z,78.8
2022-10-05T04:26:19.487Z,78.8
2022-10-05T04:27:22.778Z,78.9
2022-10-05T04:28:33.510Z,78.9
2022-10-05T04:29:37.370Z,79
2022-10-05T04:30:40.528Z,78.9
2022-10-05T04:31:44.326Z,78.9
2022-10-05T04:32:47.344Z,78.9
2022-10-05T04:33:50.497Z,79
2022-10-05T04:34:53.945Z,79.1
2022-10-05T04:35:56.824Z,79.3
2022-10-05T04:36:59.907Z,79.1
2022-10-05T04:38:02.715Z,79.4
2022-10-05T04:39:06.154Z,79.3
2022-10-05T04:40:09.222Z,79.5
2022-10-05T04:41:12.405Z,79.2
2022-10-05T04:42:15.557Z,79.2
2022-10-05T04:43:19.013Z,79.1
2022-10-05T04:44:22.803Z,79.1
2022-10-05T04:45:26.521Z,79
2022-10-05T04:46:30.175Z,79.2
2022-10-05T04:47:33.425Z,79.3
2022-10-05T04:48:37.165Z,79.4
2022-10-05T04:49:40.034Z,79.6
2022-10-05T04:50:43.189Z,79.6
2022-10-05T04:51:52.446Z,79.6
2022-10-05T04:52:55.261Z,79.4
2022-10-05T04:53:58.075Z,79.6
2022-10-05T04:55:01.506Z,79.6
2022-10-05T04:56:04.480Z,79.4
2022-10-05T04:57:07.194Z,79.7
2022-10-05T04:58:09.499Z,79.5
2022-10-05T04:59:12.138Z,79.7
2022-10-05T05:00:15.980Z,79.8
2022-10-05T05:01:19.744Z,79.8
2022-10-05T05:02:23.515Z,79.7
2022-10-05T05:03:26.805Z,79.9
2022-10-05T05:04:29.634Z,79.9
2022-10-05T05:05:33.601Z,79.9
2022-10-05T05:06:36.417Z,79.8
2022-10-05T05:07:39.576Z,80.1
2022-10-05T05:08:42.266Z,80.2
2022-10-05T05:09:45.461Z,80.1
2022-10-05T05:10:48.962Z,80
2022-10-05T05:11:52.040Z,80
2022-10-05T05:12:55.116Z,80.2
2022-10-05T05:13:57.898Z,80.1
2022-10-05T05:15:01.784Z,80.2
2022-10-05T05:16:05.986Z,80.1
2022-10-05T05:17:14.174Z,80.2
2022-10-05T05:18:17.255Z,80.3
2022-10-05T05:19:20.669Z,80.3
2022-10-05T05:20:23.387Z,80.6
2022-10-05T05:21:26.906Z,80.5
2022-10-05T05:22:29.992Z,80.8
2022-10-05T05:23:33.346Z,81
2022-10-05T05:24:36.096Z,81
2022-10-05T05:25:39.097Z,80.7
2022-10-05T05:26:42.247Z,80.6
2022-10-05T05:27:45.132Z,80.4
2022-10-05T05:28:48.311Z,80.6
2022-10-05T05:29:52.125Z,80.7
2022-10-05T05:30:54.964Z,81
2022-10-05T05:31:59.072Z,80.7
2022-10-05T05:33:01.675Z,80.7
2022-10-05T05:34:04.812Z,80.5
2022-10-05T05:35:07.410Z,80.5
2022-10-05T05:36:10.295Z,80.3
2022-10-05T05:37:13.178Z,80.2
2022-10-05T05:38:16.304Z,80
2022-10-05T05:39:19.173Z,80
2022-10-05T05:40:22.003Z,80.4
2022-10-05T05:41:25.088Z,80.2
2022-10-05T05:42:28.615Z,80.3
2022-10-05T05:43:31.337Z,80.3
2022-10-05T05:44:40.110Z,80.3
2022-10-05T05:45:43.015Z,80.5
2022-10-05T05:47:07.139Z,80.5
2022-10-05T05:48:12.953Z,80.7
2022-10-05T05:49:16.382Z,80.6
2022-10-05T05:50:19.725Z,80.2
2022-10-05T05:51:22.276Z,80
2022-10-05T05:52:24.521Z,80.2
2022-10-05T05:53:27.977Z,80
2022-10-05T05:54:31.054Z,80
2022-10-05T05:55:34.698Z,80
2022-10-05T05:56:37.578Z,79.9
2022-10-05T05:57:40.992Z,80
2022-10-05T05:58:43.441Z,80
2022-10-05T05:59:46.843Z,80.1
2022-10-05T06:00:50.070Z,80
2022-10-05T06:01:52.969Z,80.1
2022-10-05T06:02:57.127Z,80.1
2022-10-05T06:04:01.163Z,80.2
2022-10-05T06:05:04.051Z,80.2
2022-10-05T06:06:07.303Z,80.4
2022-10-05T06:07:11.055Z,80
2022-10-05T06:08:13.933Z,80.2
2022-10-05T06:09:16.803Z,80.2
2022-10-05T06:10:20.235Z,80.3
2022-10-05T06:11:23.047Z,80.2
2022-10-05T06:12:25.094Z,79.9
2022-10-05T06:13:28.268Z,79.7
2022-10-05T06:14:31.376Z,79.6
2022-10-05T06:15:34.442Z,79.7
2022-10-05T06:16:37.632Z,79.5
2022-10-05T06:17:40.578Z,79.6
2022-10-05T06:18:43.607Z,79.4
2022-10-05T06:19:47.464Z,79.3
2022-10-05T06:20:50.634Z,79.4
2022-10-05T06:21:54.274Z,79.7
2022-10-05T06:22:57.424Z,79.8
2022-10-05T06:24:00.853Z,79.6
2022-10-05T06:25:04.230Z,79.7
2022-10-05T06:26:11.864Z,79.6
2022-10-05T06:27:15.526Z,79.5
2022-10-05T06:28:18.875Z,79.4
2022-10-05T06:29:22.437Z,79.4
2022-10-05T06:30:24.615Z,79.6
2022-10-05T06:31:28.338Z,79.4
2022-10-05T06:32:31.100Z,79.5
2022-10-05T06:33:34.262Z,79.8
2022-10-05T06:34:37.364Z,79.5
2022-10-05T06:35:40.908Z,79.4
2022-10-05T06:36:44.741Z,79.3
2022-10-05T06:37:48.403Z,79.3
2022-10-05T06:38:51.288Z,79.5
2022-10-05T06:40:02.183Z,79.3
2022-10-05T06:41:05.287Z,79.3
2022-10-05T06:42:09.371Z,79.3
2022-10-05T06:43:12.652Z,79.3
2022-10-05T06:44:15.459Z,79.1
2022-10-05T06:45:18.335Z,79.2
2022-10-05T06:46:21.554Z,79.2
2022-10-05T06:47:24.813Z,79.1
2022-10-05T06:48:28.285Z,79
2022-10-05T06:49:31.069Z,78.9
2022-10-05T06:50:34.062Z,78.9
2022-10-05T06:51:38.150Z,79
2022-10-05T06:52:40.880Z,78.9
2022-10-05T06:53:44.239Z,79
2022-10-05T06:54:47.659Z,78.9
2022-10-05T06:55:50.885Z,79.3
2022-10-05T06:56:53.895Z,79.3
2022-10-05T06:57:57.242Z,79
2022-10-05T06:59:00.601Z,79.3
2022-10-05T07:00:03.212Z,79.1
2022-10-05T07:01:07.183Z,79.2
2022-10-05T07:02:10.240Z,79.1
2022-10-05T07:03:13.455Z,78.9
2022-10-05T07:04:16.597Z,79.1
2022-10-05T07:05:20.378Z,79
2022-10-05T07:06:24.443Z,78.8
2022-10-05T07:07:28.593Z,79
2022-10-05T07:08:31.802Z,79.1
2022-10-05T07:09:34.893Z,79.2
2022-10-05T07:10:37.680Z,79.3
2022-10-05T07:11:41.163Z,79.4
2022-10-05T07:12:44.539Z,78.9
2022-10-05T07:13:47.698Z,79
2022-10-05T07:14:51.460Z,79.2
2022-10-05T07:15:54.182Z,78.9
2022-10-05T07:16:57.990Z,79.1
2022-10-05T07:18:01.063Z,79
2022-10-05T07:19:03.843Z,78.9
2022-10-05T07:20:07.125Z,78.7
2022-10-05T07:21:09.913Z,78.8
2022-10-05T07:22:12.847Z,78.9
2022-10-05T07:23:16.778Z,78.6
2022-10-05T07:24:20.491Z,78.7
2022-10-05T07:25:23.783Z,78.8
2022-10-05T07:26:27.143Z,78.6
2022-10-05T07:27:30.384Z,78.6
2022-10-05T07:28:33.551Z,78.5
2022-10-05T07:29:36.277Z,79.1
2022-10-05T07:30:39.606Z,79.2
2022-10-05T07:31:43.083Z,79.1
2022-10-05T07:32:46.304Z,78.8
2022-10-05T07:33:49.406Z,78.4
2022-10-05T07:34:52.784Z,78.1
2022-10-05T07:35:55.783Z,78
2022-10-05T07:37:00.156Z,78.6
2022-10-05T07:38:03.629Z,78.3
2022-10-05T07:39:07.497Z,78.7
2022-10-05T07:40:10.576Z,78.1
2022-10-05T07:41:13.172Z,77.9
2022-10-05T07:42:16.520Z,78.1
2022-10-05T07:43:19.961Z,78.4
2022-10-05T07:44:23.402Z,78.1
2022-10-05T07:45:26.719Z,78
2022-10-05T07:46:30.554Z,77.9
2022-10-05T07:47:33.620Z,78
2022-10-05T07:48:36.634Z,78
2022-10-05T07:49:39.815Z,77.9
2022-10-05T07:50:42.322Z,77.6
2022-10-05T07:51:45.124Z,77.6
2022-10-05T07:52:48.543Z,77.5
2022-10-05T07:53:51.310Z,77.3
2022-10-05T07:54:54.904Z,77.5
2022-10-05T07:55:58.013Z,77.3
2022-10-05T07:57:00.807Z,77.2
2022-10-05T07:58:03.993Z,77.1
2022-10-05T07:59:07.188Z,77
2022-10-05T08:00:09.580Z,77
2022-10-05T08:01:13.594Z,77.3
2022-10-05T08:02:16.888Z,77.1
2022-10-05T08:03:20.992Z,76.8
2022-10-05T08:04:24.344Z,76.6
2022-10-05T08:05:27.863Z,76.4
2022-10-05T08:06:31.020Z,76.6
2022-10-05T08:07:34.120Z,76.6
2022-10-05T08:08:36.918Z,76.6
2022-10-05T08:09:40.514Z,76.8
2022-10-05T08:10:44.124Z,76.4
2022-10-05T08:11:49.437Z,76.2
2022-10-05T08:12:52.810Z,76.4
2022-10-05T08:13:55.696Z,76.4
2022-10-05T08:14:58.827Z,76.1
2022-10-05T08:16:02.130Z,76.3
2022-10-05T08:17:05.204Z,76.6
2022-10-05T08:18:09.226Z,76.1
2022-10-05T08:19:12.935Z,76.5
2022-10-05T08:20:16.410Z,76.2
2022-10-05T08:21:19.459Z,76.2
2022-10-05T08:22:22.264Z,76.5
2022-10-05T08:23:25.735Z,76.3
2022-10-05T08:24:29.241Z,76
2022-10-05T08:25:32.467Z,76.1
2022-10-05T08:26:36.383Z,75.9
2022-10-05T08:27:39.369Z,75.7
2022-10-05T08:28:42.640Z,75.9
2022-10-05T08:29:45.537Z,75.9
2022-10-05T08:30:48.906Z,75.8
2022-10-05T08:31:52.514Z,75.8
2022-10-05T08:32:55.019Z,75.9
2022-10-05T08:33:58.382Z,76.3
2022-10-05T08:35:01.742Z,76
2022-10-05T08:36:05.197Z,76.1
2022-10-05T08:37:08.339Z,76.3
2022-10-05T08:38:11.326Z,76.2
2022-10-05T08:39:13.584Z,75.9
2022-10-05T08:40:17.029Z,75.8
2022-10-05T08:41:19.341Z,75.7
2022-10-05T08:42:23.424Z,75.6
2022-10-05T08:43:25.681Z,75.5
2022-10-05T08:44:28.670Z,75.4
2022-10-05T08:45:30.906Z,75.3
2022-10-05T08:46:33.793Z,75.2
2022-10-05T08:47:36.886Z,75.4
2022-10-05T08:48:39.706Z,75.5
2022-10-05T08:49:43.221Z,75.2
2022-10-05T08:50:46.151Z,74.5
2022-10-05T08:51:50.588Z,74.7
2022-10-05T08:52:53.191Z,74.9
2022-10-05T08:53:56.185Z,74.9
2022-10-05T08:54:58.997Z,74.8
2022-10-05T08:56:01.984Z,74.5
2022-10-05T08:57:05.438Z,74.7
2022-10-05T08:58:08.983Z,74.7
2022-10-05T08:59:12.046Z,74.6
2022-10-05T09:00:15.241Z,74.7
2022-10-05T09:01:18.629Z,74.4
2022-10-05T09:02:22.571Z,75.1
2022-10-05T09:03:26.668Z,74.4
2022-10-05T09:04:37.259Z,74.3
2022-10-05T09:05:40.273Z,74.4
2022-10-05T09:06:43.716Z,74.3
2022-10-05T09:07:46.672Z,74.7
2022-10-05T09:08:50.097Z,74.4
2022-10-05T09:09:52.815Z,74.3
2022-10-05T09:10:59.952Z,74.3
2022-10-05T09:12:03.571Z,74.6
2022-10-05T09:13:07.441Z,74.8
2022-10-05T09:14:11.003Z,74.5
2022-10-05T09:15:31.607Z,74.6
2022-10-05T09:16:34.744Z,74.3
2022-10-05T09:17:40.584Z,74.1
2022-10-05T09:18:43.654Z,74
2022-10-05T09:19:47.644Z,73.8
2022-10-05T09:20:50.947Z,74
2022-10-05T09:21:53.530Z,73.8
2022-10-05T09:22:57.587Z,74
2022-10-05T09:24:00.498Z,73.8
2022-10-05T09:25:03.364Z,73.9
2022-10-05T09:26:06.805Z,73.7
2022-10-05T09:27:10.017Z,73.4
2022-10-05T09:28:13.257Z,73.6
2022-10-05T09:29:17.946Z,73.5
2022-10-05T09:30:21.012Z,73.4
2022-10-05T09:31:25.024Z,73.4
2022-10-05T09:32:28.923Z,74.4
2022-10-05T09:33:32.341Z,73.7
2022-10-05T09:34:36.092Z,73
2022-10-05T09:35:38.398Z,73.3
2022-10-05T09:36:41.634Z,72.9
2022-10-05T09:37:44.522Z,72.7
2022-10-05T09:38:47.776Z,72.8
2022-10-05T09:39:51.128Z,72.9
2022-10-05T09:40:53.840Z,72.7
2022-10-05T09:41:56.921Z,72.6
2022-10-05T09:42:59.740Z,73.2
2022-10-05T09:44:02.568Z,72.9
2022-10-05T09:45:06.629Z,72.8
2022-10-05T09:46:10.654Z,73.3
2022-10-05T09:47:13.519Z,72.8
2022-10-05T09:48:16.391Z,72.6
2022-10-05T09:49:18.817Z,72.4
2022-10-05T09:50:22.171Z,72.5
2022-10-05T09:51:24.667Z,72.6
2022-10-05T09:52:28.217Z,72.3
2022-10-05T09:53:31.619Z,72.6
2022-10-05T09:54:35.352Z,72.5
2022-10-05T09:55:38.194Z,72.4
2022-10-05T09:56:40.938Z,72.3
2022-10-05T09:57:44.125Z,72
2022-10-05T09:58:48.027Z,72.2
2022-10-05T09:59:51.461Z,72.2
2022-10-05T10:01:34.603Z,72.5
2022-10-05T10:02:39.370Z,72
2022-10-05T10:03:43.372Z,72
2022-10-05T10:04:46.505Z,71.5
2022-10-05T10:05:49.397Z,71.3
2022-10-05T10:06:52.493Z,71.4
2022-10-05T10:07:55.726Z,72
2022-10-05T10:08:58.178Z,71.1
2022-10-05T10:10:01.313Z,71.4
2022-10-05T10:11:04.511Z,71.2
2022-10-05T10:12:07.962Z,71.1
2022-10-05T10:13:11.329Z,70.9
2022-10-05T10:14:14.517Z,71.4
2022-10-05T10:15:17.128Z,71
2022-10-05T10:16:21.393Z,71.7
2022-10-05T10:17:24.877Z,71.2
2022-10-05T10:18:27.755Z,71.6
2022-10-05T10:19:30.826Z,71.5
2022-10-05T10:20:33.693Z,70.7
2022-10-05T10:21:37.128Z,70.8
2022-10-05T10:22:44.217Z,70.7
2022-10-05T10:23:47.564Z,70.6
2022-10-05T10:24:50.287Z,70
2022-10-05T10:25:53.793Z,70
2022-10-05T10:26:57.252Z,70.2
2022-10-05T10:27:59.472Z,70.1
2022-10-05T10:29:01.827Z,70.2
2022-10-05T10:30:04.711Z,69.8
2022-10-05T10:31:07.777Z,70
2022-10-05T10:32:11.245Z,69.1
2022-10-05T10:33:14.136Z,70.6
2022-10-05T10:34:16.750Z,70
2022-10-05T10:35:20.346Z,69.8
2022-10-05T10:36:23.251Z,69.9
2022-10-05T10:37:26.337Z,69.8
2022-10-05T10:38:29.788Z,69.8
2022-10-05T10:39:32.605Z,69
2022-10-05T10:40:36.034Z,68.6
2022-10-05T10:41:39.040Z,69
2022-10-05T10:42:42.305Z,69.2
2022-10-05T10:43:46.001Z,68.4
2022-10-05T10:44:49.728Z,68.3
2022-10-05T10:45:52.883Z,68.8
2022-10-05T10:46:56.374Z,68.4
2022-10-05T10:48:00.596Z,68.4
2022-10-05T10:49:03.650Z,68.7
2022-10-05T10:50:07.423Z,68.6
2022-10-05T10:51:10.214Z,68.4
2022-10-05T10:52:13.557Z,69.1
2022-10-05T10:53:16.639Z,69.2
2022-10-05T10:54:19.768Z,69.2
2022-10-05T10:55:22.869Z,69.6
2022-10-05T10:56:26.315Z,69.4
2022-10-05T10:57:29.863Z,69
2022-10-05T10:58:33.232Z,68.8
2022-10-05T10:59:35.776Z,68.3
2022-10-05T11:00:38.597Z,68.7
2022-10-05T11:01:41.821Z,68.3
2022-10-05T11:02:45.913Z,68.1
2022-10-05T11:03:49.917Z,67.7
2022-10-05T11:04:52.090Z,68.3
2022-10-05T11:05:54.680Z,68.1
2022-10-05T11:06:58.025Z,67.9
2022-10-05T11:08:00.455Z,68.2
2022-10-05T11:09:03.877Z,67.8
2022-10-05T11:10:07.365Z,68.3
2022-10-05T11:11:10.204Z,67.6
2022-10-05T11:12:13.286Z,66.8
2022-10-05T11:13:16.362Z,66.4
2022-10-05T11:14:18.935Z,66.6
2022-10-05T11:15:21.626Z,66.4
2022-10-05T11:16:24.715Z,67.7
2022-10-05T11:17:27.800Z,65.6
2022-10-05T11:18:31.036Z,66.2
2022-10-05T11:20:05.690Z,66.9
2022-10-05T11:21:08.910Z,67.4
2022-10-05T11:22:12.002Z,66.2
2022-10-05T11:23:15.435Z,66.4
2022-10-05T11:24:19.155Z,66.4
2022-10-05T11:25:22.036Z,66.7
2022-10-05T11:26:24.782Z,66.9
2022-10-05T11:27:27.572Z,66.9
2022-10-05T11:28:31.119Z,66.8
2022-10-05T11:29:34.489Z,66.9
2022-10-05T11:30:37.690Z,67
2022-10-05T11:31:41.205Z,67
2022-10-05T11:32:44.583Z,67.6
2022-10-05T11:33:48.534Z,67.1
2022-10-05T11:34:52.382Z,67.1
2022-10-05T11:35:54.883Z,67.1
2022-10-05T11:36:57.800Z,66.8
2022-10-05T11:38:00.043Z,66.5
2022-10-05T11:39:03.105Z,66.4
2022-10-05T11:40:05.781Z,66.3
2022-10-05T11:41:08.305Z,66.9
2022-10-05T11:42:11.104Z,66.6
2022-10-05T11:43:14.244Z,66.6
2022-10-05T11:44:17.157Z,66.1
2022-10-05T11:45:19.752Z,67
2022-10-05T11:46:23.669Z,66.3
2022-10-05T11:47:26.393Z,66.2
2022-10-05T11:48:29.336Z,66.2
2022-10-05T11:49:33.121Z,66
2022-10-05T11:50:36.706Z,66.5
2022-10-05T11:51:39.503Z,65.6
2022-10-05T11:52:42.835Z,66
2022-10-05T11:53:46.072Z,66
2022-10-05T11:55:19.221Z,66.3
2022-10-05T11:56:22.619Z,66.2
2022-10-05T11:57:25.873Z,66.2
2022-10-05T11:58:28.602Z,66.9
2022-10-05T11:59:32.126Z,66.8
2022-10-05T12:00:34.936Z,66.9
2022-10-05T12:01:38.367Z,66.4
2022-10-05T12:02:45.105Z,65.8
2022-10-05T12:03:49.857Z,65.4
2022-10-05T12:04:53.024Z,65.2
2022-10-05T12:05:57.089Z,66.2
2022-10-05T12:06:59.884Z,65.4
2022-10-05T12:08:02.718Z,65.1
2022-10-05T12:09:05.308Z,65.7
2022-10-05T12:10:08.571Z,65.9
2022-10-05T12:11:11.552Z,65.8
2022-10-05T12:12:14.354Z,65.7
2022-10-05T12:13:17.586Z,65.3
2022-10-05T12:14:20.831Z,64.6
2022-10-05T12:15:24.070Z,64.7
2022-10-05T12:16:27.247Z,65.6
2022-10-05T12:17:31.211Z,65.4
2022-10-05T12:18:34.944Z,64.4
2022-10-05T12:19:38.557Z,63.9
2022-10-05T12:20:41.724Z,64.5
2022-10-05T12:21:45.592Z,64.6
2022-10-05T12:22:48.183Z,64.8
2022-10-05T12:23:50.700Z,64.8
2022-10-05T12:24:53.773Z,65.3
2022-10-05T12:25:56.794Z,65.9
2022-10-05T12:27:00.237Z,64.7
2022-10-05T12:28:03.018Z,64.4
2022-10-05T12:29:05.947Z,64.6
2022-10-05T12:30:09.374Z,64.7
2022-10-05T12:31:12.997Z,64.8
2022-10-05T12:32:16.240Z,64.9
2022-10-05T12:33:19.590Z,65.1
2022-10-05T12:34:22.665Z,65
2022-10-05T12:35:50.382Z,65.7
2022-10-05T12:37:06.399Z,65
2022-10-05T12:38:09.661Z,65
2022-10-05T12:39:12.647Z,65.5
2022-10-05T12:40:15.623Z,66.1
2022-10-05T12:41:18.784Z,65.7
2022-10-05T12:42:22.237Z,65.7
2022-10-05T12:43:25.037Z,66
2022-10-05T12:44:28.487Z,65.6
2022-10-05T12:45:32.018Z,65.7
2022-10-05T12:46:34.928Z,65.5
2022-10-05T12:47:38.979Z,65.6
2022-10-05T12:48:42.344Z,65.5
2022-10-05T12:49:45.617Z,65.2
2022-10-05T12:50:49.030Z,65.9
2022-10-05T12:51:52.512Z,65.7
2022-10-05T12:52:56.191Z,64.9
2022-10-05T12:53:59.647Z,64.4
2022-10-05T12:55:02.088Z,63.9
2022-10-05T12:56:04.968Z,63.2
2022-10-05T12:57:07.557Z,63.6
2022-10-05T12:58:10.909Z,63.7
2022-10-05T12:59:14.325Z,62.8
2022-10-05T13:00:24.434Z,63.1
2022-10-05T13:01:26.939Z,62.8
2022-10-05T13:02:29.841Z,62.6
2022-10-05T13:03:33.211Z,62.2
2022-10-05T13:04:36.578Z,62.4
2022-10-05T13:05:39.498Z,62.7
2022-10-05T13:06:43.179Z,62.7
2022-10-05T13:07:46.011Z,62.9
2022-10-05T13:08:49.715Z,63.3
2022-10-05T13:09:53.154Z,64.1
2022-10-05T13:11:02.795Z,62.9
2022-10-05T13:12:06.414Z,62.9
2022-10-05T13:13:09.865Z,63.2
2022-10-05T13:14:13.223Z,63.1
2022-10-05T13:15:16.396Z,63.2
2022-10-05T13:16:19.729Z,62.9
2022-10-05T13:17:22.886Z,62.6
2022-10-05T13:18:26.113Z,63.8
2022-10-05T13:19:29.262Z,63.6
2022-10-05T13:20:31.875Z,64.1
2022-10-05T13:21:35.575Z,63.3
2022-10-05T13:22:38.095Z,62.8
2022-10-05T13:23:40.751Z,61.6
2022-10-05T13:24:44.795Z,61.8
2022-10-05T13:25:48.599Z,61.5
2022-10-05T13:26:52.294Z,62.6
2022-10-05T13:27:55.439Z,62.2
2022-10-05T13:28:58.419Z,63.2
2022-10-05T13:30:02.036Z,62.6
2022-10-05T13:31:05.435Z,63.5
2022-10-05T13:32:08.748Z,63.5
2022-10-05T13:33:11.814Z,63.5
2022-10-05T13:34:15.245Z,63.4
2022-10-05T13:35:18.039Z,63.7
2022-10-05T13:36:21.458Z,63.6
2022-10-05T13:37:24.564Z,63.6
2022-10-05T13:38:27.703Z,63.2
2022-10-05T13:39:30.598Z,63.5
2022-10-05T13:40:34.641Z,64.1
2022-10-05T13:41:37.713Z,64.2
2022-10-05T13:42:40.506Z,64
2022-10-05T13:43:44.139Z,63.8
2022-10-05T13:44:46.652Z,64.2
2022-10-05T13:45:58.053Z,63.9
2022-10-05T13:47:00.669Z,63.4
2022-10-05T13:48:03.546Z,63.1
2022-10-05T13:49:06.345Z,63.3
2022-10-05T13:50:10.118Z,63.3
2022-10-05T13:51:13.963Z,63.5
2022-10-05T13:52:18.791Z,64
2022-10-05T13:53:22.506Z,64.1
2022-10-05T13:54:25.119Z,63.5
2022-10-05T13:55:28.242Z,63.6
2022-10-05T13:56:32.129Z,63.5
2022-10-05T13:57:34.909Z,64
2022-10-05T13:58:38.574Z,64.1
2022-10-05T13:59:41.366Z,63.5
2022-10-05T14:00:44.437Z,63.1
2022-10-05T14:01:47.910Z,63.6
2022-10-05T14:02:51.118Z,63.2
2022-10-05T14:03:54.321Z,63.4
2022-10-05T14:04:57.701Z,63.3
2022-10-05T14:06:01.339Z,62.8
2022-10-05T14:07:05.433Z,62.7
2022-10-05T14:08:09.424Z,62.2
2022-10-05T14:09:12.496Z,62.2
2022-10-05T14:10:15.918Z,63.1
2022-10-05T14:11:19.074Z,62.6